Time;durP1;ratioP1;P1;durP2;ratioP2;P2;SDS_P1;SDS_P2;PMS_P1;PMS_P2;Temp;Humidity;BMP_temperature;BMP_pressure;BME280_temperature;BME280_humidity;BME280_pressure;Samples;Min_cycle;Max_cycle;Signal;HPM_P1;HPM_P2
2022/09/20 00:00:14;;;;;;;;;;;10.20;99.90;;;;;;4996841;28;19926;-86
2022/09/20 00:02:41;;;;;;;;;;;10.20;99.90;;;;;;5003273;28;19937;-85
2022/09/20 00:05:08;;;;;;;;;;;10.20;99.90;;;;;;5008085;28;20373;-84
2022/09/20 00:07:36;;;;;;;;;;;10.20;99.90;;;;;;5004885;28;19929;-85
2022/09/20 00:10:03;;;;;;;;;;;10.20;99.90;;;;;;5010039;28;19935;-85
2022/09/20 00:12:30;;;;;;;;;;;10.10;99.90;;;;;;5011205;28;19926;-84
2022/09/20 00:14:56;;;;;;;;;;;10.20;99.90;;;;;;5003304;28;19980;-85
2022/09/20 00:17:23;;;;;;;;;;;10.10;99.90;;;;;;5005465;28;19934;-90
2022/09/20 00:19:50;;;;;;;;;;;10.10;99.90;;;;;;5001623;28;20024;-88
2022/09/20 00:22:16;;;;;;;;;;;10.10;99.90;;;;;;5002509;28;19932;-88
2022/09/20 00:24:44;;;;;;;;;;;10.10;99.90;;;;;;4998265;28;19984;-87
2022/09/20 00:27:11;;;;;;;;;;;10.10;99.90;;;;;;5004376;28;19934;-88
2022/09/20 00:29:38;;;;;;;;;;;10.10;99.90;;;;;;5001661;28;21947;-89
2022/09/20 00:32:04;;;;;;;;;;;10.00;99.90;;;;;;5002515;28;20171;-87
2022/09/20 00:37:27;;;;;;;;;;;10.00;99.90;;;;;;4938543;28;19990;-88
2022/09/20 00:39:55;;;;;;;;;;;10.00;99.90;;;;;;4992020;28;19926;-87
2022/09/20 00:42:26;;;;;;;;;;;10.00;99.90;;;;;;5007357;28;19925;-87
2022/09/20 00:44:57;;;;;;;;;;;10.00;99.90;;;;;;5008401;28;19925;-87
2022/09/20 00:47:29;;;;;;;;;;;10.00;99.90;;;;;;5003550;28;19925;-86
2022/09/20 00:49:59;;;;;;;;;;;10.00;99.90;;;;;;5009119;28;19926;-85
2022/09/20 00:52:27;;;;;;;;;;;9.90;99.90;;;;;;5005305;28;19937;-85
2022/09/20 00:54:55;;;;;;;;;;;10.00;99.90;;;;;;5014994;28;19936;-85
2022/09/20 00:57:23;;;;;;;;;;;9.90;99.90;;;;;;5008458;28;19930;-86
2022/09/20 00:59:51;;;;;;;;;;;9.90;99.90;;;;;;5004384;28;19926;-84
2022/09/20 01:02:20;;;;;;;;;;;9.90;99.90;;;;;;5003935;28;19934;-82
2022/09/20 01:04:47;;;;;;;;;;;9.90;99.90;;;;;;5011742;28;20311;-86
2022/09/20 01:07:15;;;;;;;;;;;9.90;99.90;;;;;;5002969;28;19926;-85
2022/09/20 01:09:42;;;;;;;;;;;9.80;99.90;;;;;;5004060;28;19926;-88
2022/09/20 01:12:13;;;;;;;;;;;9.80;99.90;;;;;;4998218;28;19932;-88
2022/09/20 01:14:41;;;;;;;;;;;9.80;99.90;;;;;;5002402;28;20003;-87
2022/09/20 01:17:08;;;;;;;;;;;9.70;99.90;;;;;;5004659;28;19932;-88
2022/09/20 01:19:39;;;;;;;;;;;9.70;99.90;;;;;;5004888;28;19925;-88
2022/09/20 01:22:09;;;;;;;;;;;9.70;99.90;;;;;;5001880;28;19925;-86
2022/09/20 01:24:38;;;;;;;;;;;9.70;99.90;;;;;;5005389;28;20288;-84
2022/09/20 01:27:12;;;;;;;;;;;9.70;99.90;;;;;;5029391;28;19925;-83
2022/09/20 01:29:46;;;;;;;;;;;9.70;99.90;;;;;;5028437;28;20017;-87
2022/09/20 01:32:16;;;;;;;;;;;9.70;99.90;;;;;;5028407;28;19925;-83
2022/09/20 01:34:44;;;;;;;;;;;9.70;99.90;;;;;;5032163;28;19960;-83
2022/09/20 01:37:14;;;;;;;;;;;9.70;99.90;;;;;;5002947;28;19930;-86
2022/09/20 01:39:46;;;;;;;;;;;9.70;99.90;;;;;;5002362;28;19978;-86
2022/09/20 01:42:13;;;;;;;;;;;9.60;99.90;;;;;;5001424;28;20020;-86
2022/09/20 01:44:48;;;;;;;;;;;9.60;99.90;;;;;;5001839;28;19925;-87
2022/09/20 01:47:21;;;;;;;;;;;9.60;99.90;;;;;;5007349;28;19936;-89
2022/09/20 01:49:52;;;;;;;;;;;9.60;99.90;;;;;;5005150;28;19926;-86
2022/09/20 01:52:33;;;;;;;;;;;9.70;99.90;;;;;;5004557;28;19932;-88
2022/09/20 01:55:18;;;;;;;;;;;9.70;99.90;;;;;;5009263;28;19931;-87
2022/09/20 01:58:03;;;;;;;;;;;9.80;99.90;;;;;;4998871;28;19968;-86
2022/09/20 02:00:35;;;;;;;;;;;9.80;99.90;;;;;;5003478;28;20008;-87
2022/09/20 02:03:26;;;;;;;;;;;9.90;99.90;;;;;;5007210;28;19926;-87
2022/09/20 02:06:10;;;;;;;;;;;9.90;99.90;;;;;;4978279;28;20300;-87
2022/09/20 02:08:46;;;;;;;;;;;10.00;99.90;;;;;;5006180;28;19947;-87
2022/09/20 02:11:15;;;;;;;;;;;10.00;99.90;;;;;;5004514;28;19933;-87
2022/09/20 02:13:49;;;;;;;;;;;10.10;99.90;;;;;;5002918;28;19925;-86
2022/09/20 02:16:24;;;;;;;;;;;10.10;99.90;;;;;;5005120;28;20009;-88
2022/09/20 02:19:09;;;;;;;;;;;10.10;99.90;;;;;;5009763;28;19933;-88
2022/09/20 02:21:38;;;;;;;;;;;10.20;99.90;;;;;;5006212;28;19926;-85
2022/09/20 02:24:12;;;;;;;;;;;10.30;99.90;;;;;;5004428;28;20229;-86
2022/09/20 02:26:41;;;;;;;;;;;10.30;99.90;;;;;;5008789;28;19934;-89
2022/09/20 02:29:17;;;;;;;;;;;10.40;99.90;;;;;;5004724;28;19941;-90
2022/09/20 02:31:55;;;;;;;;;;;10.40;99.90;;;;;;5004514;28;19929;-89
2022/09/20 02:34:40;;;;;;;;;;;10.40;99.90;;;;;;5000863;28;21724;-89
2022/09/20 02:37:13;;;;;;;;;;;10.40;99.90;;;;;;4998977;28;19932;-89
2022/09/20 02:39:48;;;;;;;;;;;10.40;99.90;;;;;;5006375;28;19926;-89
2022/09/20 02:42:17;;;;;;;;;;;10.40;99.90;;;;;;5007112;28;20373;-90
2022/09/20 02:44:48;;;;;;;;;;;10.30;99.90;;;;;;5006363;28;19933;-90
2022/09/20 02:47:22;;;;;;;;;;;10.40;99.90;;;;;;5003538;28;20269;-90
2022/09/20 02:49:53;;;;;;;;;;;10.40;99.90;;;;;;5006787;28;19932;-91
2022/09/20 02:52:26;;;;;;;;;;;10.40;99.90;;;;;;5010628;28;19925;-89
2022/09/20 02:54:56;;;;;;;;;;;10.40;99.90;;;;;;5007254;28;20469;-89
2022/09/20 02:57:25;;;;;;;;;;;10.40;99.90;;;;;;5009543;28;19961;-89
2022/09/20 02:59:56;;;;;;;;;;;10.40;99.90;;;;;;5013509;28;19985;-89
2022/09/20 03:02:26;;;;;;;;;;;10.40;99.90;;;;;;5011191;28;20024;-90
2022/09/20 03:04:59;;;;;;;;;;;10.50;99.90;;;;;;5006747;28;19925;-88
2022/09/20 03:07:32;;;;;;;;;;;10.50;99.90;;;;;;5012625;28;20340;-90
2022/09/20 03:10:06;;;;;;;;;;;10.50;99.90;;;;;;5005696;28;19926;-87
2022/09/20 03:12:35;;;;;;;;;;;10.50;99.90;;;;;;5003164;28;19933;-87
2022/09/20 03:15:15;;;;;;;;;;;10.50;99.90;;;;;;5008831;28;19925;-87
2022/09/20 03:17:47;;;;;;;;;;;10.50;99.90;;;;;;5009091;28;19948;-87
2022/09/20 03:20:20;;;;;;;;;;;10.50;99.90;;;;;;5011821;28;19930;-87
2022/09/20 03:22:52;;;;;;;;;;;10.50;99.90;;;;;;5008700;28;20388;-87
2022/09/20 03:25:25;;;;;;;;;;;10.50;99.90;;;;;;5011091;28;19925;-86
2022/09/20 03:27:55;;;;;;;;;;;10.50;99.90;;;;;;5010355;28;19929;-87
2022/09/20 03:30:27;;;;;;;;;;;10.50;99.90;;;;;;5011907;28;19935;-88
2022/09/20 03:33:01;;;;;;;;;;;10.50;99.90;;;;;;5010837;28;20012;-88
2022/09/20 03:35:33;;;;;;;;;;;10.50;99.90;;;;;;5011872;28;20389;-87
2022/09/20 03:38:08;;;;;;;;;;;10.40;99.90;;;;;;5011365;28;20435;-87
2022/09/20 03:40:52;;;;;;;;;;;10.40;99.90;;;;;;5006360;28;19933;-86
2022/09/20 03:43:25;;;;;;;;;;;10.30;99.90;;;;;;5009098;28;19931;-86
2022/09/20 03:45:57;;;;;;;;;;;10.30;99.90;;;;;;5006644;28;19934;-86
2022/09/20 03:48:32;;;;;;;;;;;10.30;99.90;;;;;;5004193;28;19937;-83
2022/09/20 03:51:03;;;;;;;;;;;10.30;99.90;;;;;;5009940;28;19925;-87
2022/09/20 03:53:45;;;;;;;;;;;10.30;99.90;;;;;;5005097;28;19925;-88
2022/09/20 03:56:22;;;;;;;;;;;10.30;99.90;;;;;;5007280;28;19939;-87
2022/09/20 03:58:56;;;;;;;;;;;10.30;99.90;;;;;;5007276;28;19926;-88
2022/09/20 04:01:33;;;;;;;;;;;10.30;99.90;;;;;;5009530;28;19925;-86
2022/09/20 04:04:07;;;;;;;;;;;10.20;99.90;;;;;;5007499;28;20406;-84
2022/09/20 04:06:46;;;;;;;;;;;10.20;99.90;;;;;;5010508;28;19932;-87
2022/09/20 04:09:34;;;;;;;;;;;10.10;99.90;;;;;;5008131;28;19937;-86
2022/09/20 04:12:05;;;;;;;;;;;10.00;99.90;;;;;;4984393;28;19925;-85
2022/09/20 04:14:34;;;;;;;;;;;9.90;99.90;;;;;;5006119;28;20371;-86
2022/09/20 04:17:06;;;;;;;;;;;9.90;99.90;;;;;;5001552;28;19932;-86
2022/09/20 04:19:38;;;;;;;;;;;9.80;99.90;;;;;;4995867;28;20029;-89
2022/09/20 04:22:06;;;;;;;;;;;9.80;99.90;;;;;;5005626;28;20408;-89
2022/09/20 04:24:38;;;;;;;;;;;9.80;99.90;;;;;;5004928;28;19929;-89
2022/09/20 04:27:09;;;;;;;;;;;9.80;99.90;;;;;;5008757;28;19987;-88
2022/09/20 04:29:38;;;;;;;;;;;9.80;99.90;;;;;;5007486;28;19932;-82
2022/09/20 04:32:12;;;;;;;;;;;9.70;99.90;;;;;;5005475;28;20343;-87
2022/09/20 04:37:31;;;;;;;;;;;9.70;99.90;;;;;;5012467;28;19932;-91
2022/09/20 04:40:05;;;;;;;;;;;9.60;99.90;;;;;;5011587;28;20331;-89
2022/09/20 04:42:54;;;;;;;;;;;9.60;99.90;;;;;;5006492;28;20028;-89
2022/09/20 04:45:44;;;;;;;;;;;9.50;99.90;;;;;;5011342;28;19925;-89
2022/09/20 04:48:25;;;;;;;;;;;9.50;99.90;;;;;;5006394;28;19925;-89
2022/09/20 04:51:09;;;;;;;;;;;9.50;99.90;;;;;;5008431;28;19929;-88
2022/09/20 04:53:46;;;;;;;;;;;9.40;99.90;;;;;;5011280;28;19941;-90
2022/09/20 04:56:19;;;;;;;;;;;9.40;99.90;;;;;;5003612;28;19925;-88
2022/09/20 04:58:48;;;;;;;;;;;9.40;99.90;;;;;;5010409;28;19926;-82
2022/09/20 05:01:31;;;;;;;;;;;9.30;99.90;;;;;;5005527;28;19933;-87
2022/09/20 05:04:07;;;;;;;;;;;9.20;99.90;;;;;;5004499;28;20031;-87
2022/09/20 05:06:42;;;;;;;;;;;9.10;99.90;;;;;;5003672;28;19933;-87
2022/09/20 05:09:35;;;;;;;;;;;9.10;99.90;;;;;;5006606;28;19926;-88
2022/09/20 05:12:18;;;;;;;;;;;9.10;99.90;;;;;;5011149;28;20028;-87
2022/09/20 05:15:00;;;;;;;;;;;9.10;99.90;;;;;;5001179;28;19929;-85
2022/09/20 05:17:36;;;;;;;;;;;9.10;99.90;;;;;;5005875;28;19948;-87
2022/09/20 05:20:13;;;;;;;;;;;9.10;99.90;;;;;;5007483;28;19925;-87
2022/09/20 05:22:58;;;;;;;;;;;9.10;99.90;;;;;;5006749;28;19966;-87
2022/09/20 05:25:38;;;;;;;;;;;9.10;99.90;;;;;;5007686;28;19932;-88
2022/09/20 05:28:08;;;;;;;;;;;9.00;99.90;;;;;;5009712;28;19944;-87
2022/09/20 05:30:38;;;;;;;;;;;9.00;99.90;;;;;;5012226;28;19967;-87
2022/09/20 05:33:11;;;;;;;;;;;8.90;99.90;;;;;;5009938;28;20331;-86
2022/09/20 05:35:42;;;;;;;;;;;8.90;99.90;;;;;;5006159;28;19929;-87
2022/09/20 05:38:12;;;;;;;;;;;8.90;99.90;;;;;;5006570;28;20330;-87
2022/09/20 05:40:58;;;;;;;;;;;8.90;99.90;;;;;;5005601;28;19933;-87
2022/09/20 05:43:30;;;;;;;;;;;8.90;99.90;;;;;;5006640;28;19971;-87
2022/09/20 05:46:03;;;;;;;;;;;8.90;99.90;;;;;;5008814;28;20377;-86
2022/09/20 05:48:35;;;;;;;;;;;8.90;99.90;;;;;;5015148;28;19931;-86
2022/09/20 05:51:06;;;;;;;;;;;8.80;99.90;;;;;;5012140;28;19932;-87
2022/09/20 05:53:44;;;;;;;;;;;8.80;99.90;;;;;;5005196;28;20026;-83
2022/09/20 05:56:14;;;;;;;;;;;8.80;99.90;;;;;;5008521;28;20016;-88
2022/09/20 05:59:00;;;;;;;;;;;8.80;99.90;;;;;;5008768;28;19925;-88
2022/09/20 06:01:31;;;;;;;;;;;8.80;99.90;;;;;;5005950;28;19955;-85
2022/09/20 06:04:04;;;;;;;;;;;8.90;99.90;;;;;;5009678;28;20315;-87
2022/09/20 06:06:36;;;;;;;;;;;9.10;99.90;;;;;;5011041;28;19980;-87
2022/09/20 06:09:09;;;;;;;;;;;9.10;99.90;;;;;;5010971;28;19926;-88
2022/09/20 06:11:43;;;;;;;;;;;9.20;99.90;;;;;;4994075;28;19948;-87
2022/09/20 06:14:17;;;;;;;;;;;9.20;99.90;;;;;;5008760;28;19926;-83
2022/09/20 06:16:48;;;;;;;;;;;9.20;99.90;;;;;;5002198;28;19971;-84
2022/09/20 06:19:20;;;;;;;;;;;9.40;99.90;;;;;;5005891;28;19933;-85
2022/09/20 06:21:50;;;;;;;;;;;9.30;99.90;;;;;;5003976;28;19984;-85
2022/09/20 06:24:24;;;;;;;;;;;9.30;99.90;;;;;;5003317;28;19936;-85
2022/09/20 06:26:52;;;;;;;;;;;9.40;99.90;;;;;;5008311;28;20441;-87
2022/09/20 06:29:23;;;;;;;;;;;9.50;99.90;;;;;;5002142;28;19926;-86
2022/09/20 06:31:50;;;;;;;;;;;9.50;99.90;;;;;;5005162;28;19932;-83
2022/09/20 06:34:16;;;;;;;;;;;9.60;99.90;;;;;;4997882;28;20020;-85
2022/09/20 06:42:23;;;;;;;;;;;9.60;99.90;;;;;;4994757;28;20343;-83
2022/09/20 06:44:51;;;;;;;;;;;9.70;99.90;;;;;;5000270;28;19926;-84
2022/09/20 06:47:18;;;;;;;;;;;9.80;99.90;;;;;;5004139;28;20402;-85
2022/09/20 06:49:45;;;;;;;;;;;9.80;99.90;;;;;;4999911;28;19979;-80
2022/09/20 06:52:13;;;;;;;;;;;9.90;99.90;;;;;;5003181;28;19929;-83
2022/09/20 06:54:45;;;;;;;;;;;9.90;99.90;;;;;;4994632;28;19929;-82
2022/09/20 06:57:12;;;;;;;;;;;10.00;99.90;;;;;;5005202;28;19933;-82
2022/09/20 06:59:39;;;;;;;;;;;10.10;99.90;;;;;;5004069;28;20028;-78
2022/09/20 07:02:07;;;;;;;;;;;10.10;99.90;;;;;;4999979;28;19965;-79
2022/09/20 07:04:33;;;;;;;;;;;10.20;99.90;;;;;;4994795;28;19964;-86
2022/09/20 07:07:00;;;;;;;;;;;10.30;99.90;;;;;;4997781;28;19925;-90
2022/09/20 07:09:28;;;;;;;;;;;10.40;99.90;;;;;;4996526;28;20708;-88
2022/09/20 07:11:57;;;;;;;;;;;10.50;99.90;;;;;;5000817;28;20022;-89
2022/09/20 07:14:25;;;;;;;;;;;10.60;99.90;;;;;;4998579;28;20412;-85
2022/09/20 07:16:52;;;;;;;;;;;10.80;99.90;;;;;;4996863;28;19925;-86
2022/09/20 07:19:21;;;;;;;;;;;10.90;99.90;;;;;;5001997;28;19934;-89
2022/09/20 07:21:48;;;;;;;;;;;11.00;99.90;;;;;;5007630;28;20000;-92
2022/09/20 07:24:14;;;;;;;;;;;11.20;99.90;;;;;;5003796;28;20177;-90
2022/09/20 07:26:54;;;;;;;;;;;11.40;99.90;;;;;;5002124;28;20013;-90
2022/09/20 07:29:21;;;;;;;;;;;12.70;99.90;;;;;;5004416;28;19941;-86
2022/09/20 07:31:48;;;;;;;;;;;15.50;99.90;;;;;;4997548;28;19969;-83
2022/09/20 07:34:17;;;;;;;;;;;16.00;99.90;;;;;;4997791;28;19996;-79
2022/09/20 07:36:45;;;;;;;;;;;15.70;99.90;;;;;;5000489;28;19936;-78
2022/09/20 07:39:12;;;;;;;;;;;15.60;99.90;;;;;;4997966;28;20296;-74
2022/09/20 07:41:38;;;;;;;;;;;16.60;99.90;;;;;;5002340;28;19940;-80
2022/09/20 07:46:47;;;;;;;;;;;17.70;99.00;;;;;;5004994;28;19943;-81
2022/09/20 07:49:14;;;;;;;;;;;17.10;99.90;;;;;;5000770;28;19929;-81
2022/09/20 07:51:41;;;;;;;;;;;16.60;99.90;;;;;;5001010;28;20289;-82
2022/09/20 07:54:09;;;;;;;;;;;16.00;99.90;;;;;;4999358;28;20377;-77
2022/09/20 07:56:36;;;;;;;;;;;15.50;99.90;;;;;;4997880;28;19933;-77
2022/09/20 07:59:03;;;;;;;;;;;14.90;99.90;;;;;;5005522;28;20129;-75
2022/09/20 08:01:30;;;;;;;;;;;14.70;99.90;;;;;;5001203;28;19956;-74
2022/09/20 08:03:56;;;;;;;;;;;14.40;99.90;;;;;;4995551;28;20013;-73
2022/09/20 08:06:23;;;;;;;;;;;14.30;99.90;;;;;;5000528;28;19926;-76
2022/09/20 08:08:51;;;;;;;;;;;14.30;99.90;;;;;;4999962;28;20055;-77
2022/09/20 08:11:20;;;;;;;;;;;14.20;99.90;;;;;;5002041;28;20017;-76
2022/09/20 08:13:48;;;;;;;;;;;14.10;99.90;;;;;;5001171;28;19952;-77
2022/09/20 08:16:14;;;;;;;;;;;14.10;99.90;;;;;;4998693;28;19926;-76
2022/09/20 08:18:45;;;;;;;;;;;14.10;99.90;;;;;;5003713;28;20403;-76
2022/09/20 08:21:12;;;;;;;;;;;14.00;99.90;;;;;;4999745;28;20385;-77
2022/09/20 08:23:39;;;;;;;;;;;14.00;99.90;;;;;;5004684;28;19926;-73
2022/09/20 08:26:07;;;;;;;;;;;14.10;99.90;;;;;;5006797;28;19925;-82
2022/09/20 08:28:35;;;;;;;;;;;14.20;99.90;;;;;;5009013;28;19930;-82
2022/09/20 08:31:02;;;;;;;;;;;14.20;99.90;;;;;;5000955;28;20337;-82
2022/09/20 08:33:29;;;;;;;;;;;14.30;99.90;;;;;;5007692;28;19925;-82
2022/09/20 08:35:56;;;;;;;;;;;14.40;99.90;;;;;;4999707;28;19989;-82
2022/09/20 08:38:25;;;;;;;;;;;14.50;99.90;;;;;;5008256;28;19933;-82
2022/09/20 08:40:53;;;;;;;;;;;14.50;99.90;;;;;;5003038;28;19926;-83
2022/09/20 08:43:20;;;;;;;;;;;14.70;99.90;;;;;;5002493;28;19926;-82
2022/09/20 08:45:48;;;;;;;;;;;14.70;99.90;;;;;;5002213;28;19937;-82
2022/09/20 08:48:16;;;;;;;;;;;15.60;99.90;;;;;;4998136;28;20020;-82
2022/09/20 08:50:43;;;;;;;;;;;18.60;99.90;;;;;;5005711;28;20016;-81
2022/09/20 08:53:12;;;;;;;;;;;21.30;97.70;;;;;;5003333;28;19925;-81
2022/09/20 08:55:42;;;;;;;;;;;23.10;90.90;;;;;;5000040;28;19961;-78
2022/09/20 08:58:10;;;;;;;;;;;23.40;92.50;;;;;;5002792;28;19926;-78
2022/09/20 09:00:37;;;;;;;;;;;;;;;;;;4998139;28;20341;-77
2022/09/20 09:03:06;;;;;;;;;;;22.70;77.80;;;;;;5006440;28;19933;-83
2022/09/20 09:05:34;;;;;;;;;;;20.70;82.10;;;;;;5007059;28;19926;-79
2022/09/20 09:08:03;;;;;;;;;;;19.40;90.30;;;;;;5001817;28;19926;-78
2022/09/20 09:10:33;;;;;;;;;;;18.60;91.40;;;;;;4999743;28;19992;-81
2022/09/20 09:13:00;;;;;;;;;;;18.20;94.00;;;;;;4999851;28;20380;-78
2022/09/20 09:15:31;;;;;;;;;;;18.10;95.60;;;;;;4994709;28;19926;-76
2022/09/20 09:17:58;;;;;;;;;;;18.70;94.40;;;;;;4997254;28;19973;-77
2022/09/20 09:20:26;;;;;;;;;;;19.00;94.20;;;;;;5000847;28;19925;-74
2022/09/20 09:22:59;;;;;;;;;;;20.20;93.20;;;;;;4991696;28;20008;-76
2022/09/20 09:25:31;;;;;;;;;;;21.20;91.70;;;;;;5002982;28;20028;-75
2022/09/20 09:27:59;;;;;;;;;;;20.80;87.10;;;;;;5004609;28;20133;-78
2022/09/20 09:30:29;;;;;;;;;;;20.30;88.80;;;;;;4994878;28;19933;-76
2022/09/20 09:33:10;;;;;;;;;;;19.50;91.30;;;;;;4995715;28;19987;-75
2022/09/20 09:35:39;;;;;;;;;;;19.10;92.80;;;;;;4999880;28;19930;-75
2022/09/20 09:38:05;;;;;;;;;;;18.90;93.90;;;;;;4996153;28;19981;-75
2022/09/20 09:40:33;;;;;;;;;;;19.20;93.70;;;;;;5000127;28;19936;-75
2022/09/20 09:43:01;;;;;;;;;;;19.50;93.40;;;;;;4999636;28;19965;-76
2022/09/20 09:45:30;;;;;;;;;;;19.50;92.80;;;;;;4999846;28;19973;-72
2022/09/20 09:47:58;;;;;;;;;;;19.10;93.50;;;;;;5002474;28;19933;-76
2022/09/20 09:50:26;;;;;;;;;;;19.00;94.20;;;;;;5002524;28;19933;-71
2022/09/20 09:53:09;;;;;;;;;;;18.90;94.00;;;;;;5004565;28;19926;-73
2022/09/20 09:55:51;;;;;;;;;;;18.30;94.20;;;;;;5002293;28;20015;-76
2022/09/20 09:58:24;;;;;;;;;;;18.20;94.90;;;;;;4997794;28;19941;-76
2022/09/20 10:00:52;;;;;;;;;;;18.10;94.50;;;;;;4999361;28;19933;-76
2022/09/20 10:03:26;;;;;;;;;;;17.80;95.60;;;;;;5000755;28;19941;-75
2022/09/20 10:06:02;;;;;;;;;;;17.80;96.30;;;;;;4999315;28;19929;-75
2022/09/20 10:08:37;;;;;;;;;;;17.90;96.00;;;;;;4996700;28;20450;-76
2022/09/20 10:11:09;;;;;;;;;;;17.70;96.70;;;;;;5003315;28;20028;-76
2022/09/20 10:13:38;;;;;;;;;;;17.30;97.60;;;;;;5004419;28;20025;-76
2022/09/20 10:16:13;;;;;;;;;;;17.00;99.20;;;;;;5000418;28;19933;-76
2022/09/20 10:18:44;;;;;;;;;;;16.70;99.90;;;;;;4998471;28;20040;-77
2022/09/20 10:21:18;;;;;;;;;;;16.60;99.90;;;;;;5001635;28;19934;-75
2022/09/20 10:23:52;;;;;;;;;;;16.30;99.90;;;;;;5029605;22;20016;-76
2022/09/20 10:26:27;;;;;;;;;;;16.30;99.90;;;;;;5016477;28;19965;-75
2022/09/20 10:28:58;;;;;;;;;;;16.40;99.90;;;;;;5012697;28;19929;-75
2022/09/20 10:31:34;;;;;;;;;;;16.60;99.90;;;;;;5016736;28;19930;-76
2022/09/20 10:34:14;;;;;;;;;;;16.90;99.90;;;;;;5016461;28;20328;-75
2022/09/20 10:36:44;;;;;;;;;;;17.00;99.90;;;;;;5012400;28;19933;-76
2022/09/20 10:39:15;;;;;;;;;;;17.30;99.90;;;;;;5017280;28;19925;-78
2022/09/20 10:44:45;;;;;;;;;;;17.00;99.90;;;;;;5022117;28;19936;-79
2022/09/20 10:47:13;;;;;;;;;;;17.10;99.90;;;;;;5029736;28;19961;-79
2022/09/20 10:49:42;;;;;;;;;;;17.20;99.90;;;;;;5026674;28;20088;-79
2022/09/20 10:52:23;;;;;;;;;;;17.20;99.90;;;;;;5022648;28;20618;-77
2022/09/20 10:55:02;;;;;;;;;;;17.10;99.90;;;;;;5017869;28;19925;-80
2022/09/20 10:57:39;;;;;;;;;;;17.10;99.90;;;;;;5020276;28;20265;-76
2022/09/20 11:00:15;;;;;;;;;;;17.30;99.90;;;;;;5020860;28;20020;-77
2022/09/20 11:02:45;;;;;;;;;;;17.50;99.90;;;;;;5016568;28;19926;-77
2022/09/20 11:05:18;;;;;;;;;;;17.50;98.10;;;;;;5017529;28;20032;-78
2022/09/20 11:07:51;;;;;;;;;;;17.50;97.60;;;;;;5014907;28;20044;-80
2022/09/20 11:10:23;;;;;;;;;;;17.70;97.10;;;;;;5020643;28;20002;-75
2022/09/20 11:12:52;;;;;;;;;;;17.40;95.50;;;;;;5019252;28;19980;-75
2022/09/20 11:15:22;;;;;;;;;;;17.70;95.40;;;;;;5018855;28;20016;-76
2022/09/20 11:17:52;;;;;;;;;;;17.40;94.70;;;;;;5021147;28;19933;-75
2022/09/20 11:20:21;;;;;;;;;;;17.40;95.40;;;;;;5018570;28;19929;-74
2022/09/20 11:22:49;;;;;;;;;;;17.70;95.00;;;;;;5023412;28;20373;-74
2022/09/20 11:25:18;;;;;;;;;;;17.70;95.10;;;;;;5021327;28;19929;-75
2022/09/20 11:27:49;;;;;;;;;;;17.50;95.40;;;;;;5018309;28;19947;-75
2022/09/20 11:30:17;;;;;;;;;;;17.30;95.50;;;;;;5026461;28;19929;-75
2022/09/20 11:32:47;;;;;;;;;;;17.40;95.00;;;;;;5020205;28;20020;-77
2022/09/20 11:35:21;;;;;;;;;;;17.70;95.20;;;;;;5020241;28;19937;-75
2022/09/20 11:37:50;;;;;;;;;;;17.70;94.50;;;;;;5018251;28;19956;-74
2022/09/20 11:40:22;;;;;;;;;;;17.30;95.20;;;;;;5024370;28;20402;-74
2022/09/20 11:42:51;;;;;;;;;;;17.70;95.10;;;;;;5024543;28;19933;-75
2022/09/20 11:45:19;;;;;;;;;;;17.80;94.90;;;;;;5023022;28;20012;-74
2022/09/20 11:47:47;;;;;;;;;;;17.40;96.40;;;;;;5022594;28;19939;-74
2022/09/20 11:50:31;;;;;;;;;;;17.40;95.90;;;;;;5028029;28;19972;-73
2022/09/20 11:53:06;;;;;;;;;;;17.50;95.50;;;;;;5026692;28;19925;-74
2022/09/20 11:55:37;;;;;;;;;;;18.00;94.40;;;;;;5034354;28;19929;-74
2022/09/20 11:58:06;;;;;;;;;;;18.20;94.30;;;;;;5019234;28;20012;-73
2022/09/20 12:00:34;;;;;;;;;;;18.40;93.80;;;;;;5024607;28;20387;-74
2022/09/20 12:03:02;;;;;;;;;;;18.70;92.70;;;;;;5021008;28;19925;-75
2022/09/20 12:05:31;;;;;;;;;;;19.00;92.10;;;;;;5014761;28;19926;-74
2022/09/20 12:07:59;;;;;;;;;;;19.00;92.00;;;;;;5012927;28;20016;-74
2022/09/20 12:10:27;;;;;;;;;;;18.80;92.30;;;;;;5024957;28;19987;-76
2022/09/20 12:12:58;;;;;;;;;;;19.20;91.20;;;;;;5028808;28;20012;-74
2022/09/20 12:15:27;;;;;;;;;;;19.40;91.20;;;;;;5031202;28;20367;-75
2022/09/20 12:18:18;;;;;;;;;;;19.40;90.30;;;;;;5026489;28;19936;-75
2022/09/20 12:21:01;;;;;;;;;;;19.30;90.20;;;;;;5023504;28;19925;-75
2022/09/20 12:23:47;;;;;;;;;;;18.70;90.30;;;;;;5016161;28;20270;-75
2022/09/20 12:26:29;;;;;;;;;;;17.90;91.90;;;;;;5024531;28;19968;-75
2022/09/20 12:28:57;;;;;;;;;;;17.20;93.20;;;;;;5022042;28;20020;-75
2022/09/20 12:31:40;;;;;;;;;;;17.00;94.00;;;;;;5020816;28;19936;-74
2022/09/20 12:34:32;;;;;;;;;;;17.20;94.00;;;;;;5019959;28;20415;-74
2022/09/20 12:37:18;;;;;;;;;;;17.20;94.00;;;;;;5027445;28;20015;-74
2022/09/20 12:39:51;;;;;;;;;;;17.20;94.10;;;;;;5019980;28;19937;-75
2022/09/20 12:42:26;;;;;;;;;;;17.10;94.10;;;;;;5024139;28;19933;-76
2022/09/20 12:44:57;;;;;;;;;;;17.10;94.70;;;;;;5020483;28;20004;-75
2022/09/20 12:47:27;;;;;;;;;;;17.10;94.00;;;;;;5018123;28;19961;-74
2022/09/20 12:52:59;;;;;;;;;;;17.40;94.00;;;;;;5019550;28;19932;-74
2022/09/20 12:55:44;;;;;;;;;;;17.50;93.80;;;;;;5022238;28;19925;-75
2022/09/20 12:58:31;;;;;;;;;;;17.50;94.00;;;;;;5030359;28;20031;-74
2022/09/20 13:01:17;;;;;;;;;;;17.50;93.40;;;;;;5018197;28;19925;-74
2022/09/20 13:03:45;;;;;;;;;;;17.60;93.90;;;;;;5011957;28;20019;-74
2022/09/20 13:06:22;;;;;;;;;;;17.50;94.60;;;;;;5015567;28;19929;-73
2022/09/20 13:08:51;;;;;;;;;;;17.50;95.40;;;;;;5022155;28;19935;-73
2022/09/20 13:11:19;;;;;;;;;;;17.60;96.00;;;;;;5016176;28;19933;-73
2022/09/20 13:13:48;;;;;;;;;;;17.70;96.00;;;;;;5023482;28;19926;-73
2022/09/20 13:16:21;;;;;;;;;;;17.60;95.90;;;;;;5023009;28;19953;-74
2022/09/20 13:18:50;;;;;;;;;;;17.70;96.00;;;;;;5022428;28;20086;-73
2022/09/20 13:21:17;;;;;;;;;;;17.80;94.90;;;;;;5021910;28;20014;-73
2022/09/20 13:23:46;;;;;;;;;;;17.60;95.20;;;;;;5023537;28;19980;-73
2022/09/20 13:26:14;;;;;;;;;;;17.80;96.00;;;;;;5021135;28;20046;-74
2022/09/20 13:28:45;;;;;;;;;;;18.00;95.70;;;;;;5021151;28;19932;-73
2022/09/20 13:31:29;;;;;;;;;;;18.10;95.40;;;;;;5021256;28;19925;-73
2022/09/20 13:34:11;;;;;;;;;;;18.20;95.30;;;;;;5022431;28;20256;-73
2022/09/20 13:36:38;;;;;;;;;;;18.00;95.00;;;;;;5020187;28;20386;-74
2022/09/20 13:39:06;;;;;;;;;;;17.70;95.20;;;;;;5021162;28;19943;-74
2022/09/20 13:41:34;;;;;;;;;;;17.50;95.60;;;;;;5015413;28;20028;-73
2022/09/20 13:44:01;;;;;;;;;;;17.50;96.20;;;;;;5020301;28;19968;-74
2022/09/20 13:46:29;;;;;;;;;;;17.50;96.60;;;;;;5016990;28;20297;-74
2022/09/20 13:49:09;;;;;;;;;;;17.30;96.60;;;;;;5020974;28;19925;-74
2022/09/20 13:51:35;;;;;;;;;;;17.20;96.70;;;;;;5017876;28;19936;-74
2022/09/20 13:54:17;;;;;;;;;;;17.20;96.90;;;;;;5021542;28;20016;-75
2022/09/20 13:56:43;;;;;;;;;;;17.30;97.20;;;;;;5017075;28;19971;-75
2022/09/20 13:59:13;;;;;;;;;;;17.30;96.90;;;;;;5024868;28;19993;-74
2022/09/20 14:01:42;;;;;;;;;;;17.40;97.00;;;;;;5020675;28;20285;-77
2022/09/20 14:04:14;;;;;;;;;;;17.50;97.00;;;;;;5026781;28;19925;-74
2022/09/20 14:06:41;;;;;;;;;;;17.60;97.10;;;;;;5013093;28;19960;-77
2022/09/20 14:09:17;;;;;;;;;;;17.70;97.20;;;;;;5029906;28;19929;-76
2022/09/20 14:11:44;;;;;;;;;;;17.80;96.80;;;;;;5023476;28;20396;-76
2022/09/20 14:14:15;;;;;;;;;;;17.80;96.80;;;;;;5020329;28;19925;-76
2022/09/20 14:16:45;;;;;;;;;;;17.50;96.70;;;;;;5018732;28;20027;-75
2022/09/20 14:19:15;;;;;;;;;;;17.40;96.70;;;;;;5016977;28;19947;-76
2022/09/20 14:21:42;;;;;;;;;;;17.30;97.00;;;;;;5021926;28;19925;-76
2022/09/20 14:24:24;;;;;;;;;;;17.30;97.10;;;;;;5024613;28;19933;-75
2022/09/20 14:27:03;;;;;;;;;;;17.20;97.10;;;;;;5017549;28;20609;-74
2022/09/20 14:29:30;;;;;;;;;;;17.20;97.50;;;;;;5020135;28;19929;-75
2022/09/20 14:31:58;;;;;;;;;;;17.20;97.70;;;;;;5024788;28;20372;-73
2022/09/20 14:34:27;;;;;;;;;;;17.30;97.40;;;;;;5018035;28;19957;-75
2022/09/20 14:37:02;;;;;;;;;;;17.30;97.10;;;;;;5016256;28;20038;-75
2022/09/20 14:39:29;;;;;;;;;;;17.20;96.70;;;;;;5018808;28;19944;-75
2022/09/20 14:41:55;;;;;;;;;;;16.90;96.50;;;;;;5017915;28;20027;-75
2022/09/20 14:44:25;;;;;;;;;;;16.70;96.40;;;;;;5018977;28;19932;-76
2022/09/20 14:46:53;;;;;;;;;;;16.60;97.00;;;;;;5025176;28;20052;-73
2022/09/20 14:49:21;;;;;;;;;;;16.60;97.90;;;;;;5023905;28;20309;-75
2022/09/20 14:51:50;;;;;;;;;;;16.60;97.70;;;;;;5022797;28;20010;-75
2022/09/20 14:54:28;;;;;;;;;;;16.50;98.20;;;;;;5020821;28;19934;-77
2022/09/20 14:56:56;;;;;;;;;;;16.50;98.40;;;;;;5022213;28;20035;-76
2022/09/20 14:59:24;;;;;;;;;;;16.60;98.90;;;;;;5024449;28;19925;-75
2022/09/20 15:01:56;;;;;;;;;;;16.60;98.60;;;;;;5020042;28;20368;-76
2022/09/20 15:04:24;;;;;;;;;;;16.60;98.70;;;;;;5025872;28;19933;-75
2022/09/20 15:06:52;;;;;;;;;;;16.70;99.00;;;;;;5019987;28;20412;-74